Time;durP1;ratioP1;P1;durP2;ratioP2;P2;SDS_P1;SDS_P2;PMS_P1;PMS_P2;Temp;Humidity;BMP_temperature;BMP_pressure;BME280_temperature;BME280_humidity;BME280_pressure;Samples;Min_cycle;Max_cycle;Signal;HPM_P1;HPM_P2
2022/07/06 00:00:06;;;;;;;2.63;0.20;;;12.30;99.90;;;;;;5050827;28;20041;-74
2022/07/06 00:02:32;;;;;;;1.27;0.20;;;12.30;99.90;;;;;;5050101;28;20082;-73
2022/07/06 00:04:58;;;;;;;1.20;0.20;;;12.30;99.90;;;;;;5038916;28;20592;-75
2022/07/06 00:07:24;;;;;;;2.00;0.20;;;12.30;99.90;;;;;;5039627;28;20028;-74
2022/07/06 00:09:49;;;;;;;1.40;0.30;;;12.20;99.90;;;;;;5049516;28;20291;-74
2022/07/06 00:12:15;;;;;;;1.27;0.30;;;12.20;99.90;;;;;;5067250;28;20503;-74
2022/07/06 00:14:41;;;;;;;0.85;0.30;;;12.20;99.90;;;;;;5066658;28;20039;-74
2022/07/06 00:17:07;;;;;;;0.50;0.20;;;12.20;99.90;;;;;;5055735;28;20428;-74
2022/07/06 00:19:33;;;;;;;1.50;0.30;;;12.20;99.90;;;;;;5053601;28;20033;-74
2022/07/06 00:21:58;;;;;;;2.35;0.43;;;12.20;99.90;;;;;;5051787;28;20036;-73
2022/07/06 00:24:24;;;;;;;1.98;0.40;;;12.10;99.90;;;;;;5052624;28;20646;-74
2022/07/06 00:26:50;;;;;;;1.67;0.30;;;12.20;99.90;;;;;;5067236;28;20129;-74
2022/07/06 00:29:15;;;;;;;13.40;0.60;;;12.10;99.90;;;;;;5037046;28;20079;-74
2022/07/06 00:31:41;;;;;;;1.48;0.50;;;12.10;99.90;;;;;;5034161;28;20465;-74
2022/07/06 00:34:07;;;;;;;2.08;0.30;;;12.10;99.90;;;;;;5037891;28;20560;-74
2022/07/06 00:36:33;;;;;;;1.67;0.40;;;12.10;99.90;;;;;;5049972;28;20028;-74
2022/07/06 00:38:58;;;;;;;2.08;0.30;;;12.10;99.90;;;;;;5035100;28;20129;-74
2022/07/06 00:41:24;;;;;;;1.27;0.40;;;12.10;99.90;;;;;;5051996;28;20020;-74
2022/07/06 00:43:55;;;;;;;1.00;0.40;;;12.00;99.90;;;;;;5055030;28;20041;-79
2022/07/06 00:46:27;;;;;;;1.42;0.32;;;12.00;99.90;;;;;;5068225;28;20061;-74
2022/07/06 00:48:53;;;;;;;2.95;0.50;;;12.00;99.90;;;;;;5051602;28;20051;-74
2022/07/06 00:51:21;;;;;;;1.85;0.30;;;12.10;99.90;;;;;;5051370;28;20028;-74
2022/07/06 00:53:48;;;;;;;3.08;0.50;;;12.00;99.90;;;;;;5050153;28;20029;-74
2022/07/06 00:56:14;;;;;;;0.80;0.30;;;12.00;99.90;;;;;;5054282;28;20488;-74
2022/07/06 00:58:39;;;;;;;1.83;0.40;;;11.90;99.90;;;;;;5066657;28;20064;-74
2022/07/06 01:01:05;;;;;;;2.20;0.30;;;11.90;99.90;;;;;;5054648;28;20127;-74
2022/07/06 01:03:32;;;;;;;3.88;0.50;;;11.90;99.90;;;;;;5050384;28;20142;-75
2022/07/06 01:05:58;;;;;;;3.53;0.40;;;11.90;99.90;;;;;;5032388;28;20497;-74
2022/07/06 01:08:24;;;;;;;1.55;0.30;;;11.90;99.90;;;;;;5051157;28;20043;-74
2022/07/06 01:10:50;;;;;;;2.08;0.40;;;11.80;99.90;;;;;;5034027;28;20031;-73
2022/07/06 01:13:15;;;;;;;2.05;0.40;;;11.80;99.90;;;;;;5050391;28;20074;-74
2022/07/06 01:15:41;;;;;;;1.00;0.38;;;11.80;99.90;;;;;;5046091;28;20028;-74
2022/07/06 01:18:11;;;;;;;4.32;0.50;;;11.80;99.90;;;;;;5051720;28;20468;-73
2022/07/06 01:20:36;;;;;;;0.88;0.38;;;11.80;99.90;;;;;;5034105;28;20060;-73
2022/07/06 01:23:02;;;;;;;3.60;0.40;;;11.70;99.90;;;;;;5045742;28;20513;-74
2022/07/06 01:25:28;;;;;;;1.98;0.40;;;11.70;99.90;;;;;;5050280;28;20473;-74
2022/07/06 01:27:54;;;;;;;2.42;0.45;;;11.60;99.90;;;;;;5055020;28;20025;-74
2022/07/06 01:30:20;;;;;;;0.90;0.30;;;11.60;99.90;;;;;;5049788;28;20389;-73
2022/07/06 01:32:46;;;;;;;2.35;0.40;;;11.60;99.90;;;;;;5049044;28;20032;-74
2022/07/06 01:35:14;;;;;;;3.17;0.77;;;11.60;99.90;;;;;;5050089;28;20067;-75
2022/07/06 01:37:41;;;;;;;1.30;0.30;;;11.60;99.90;;;;;;5037049;28;20020;-74
2022/07/06 01:40:09;;;;;;;2.05;0.40;;;11.50;99.90;;;;;;5031776;28;20040;-74
2022/07/06 01:42:35;;;;;;;0.98;0.30;;;11.50;99.90;;;;;;5066484;28;20035;-77
2022/07/06 01:45:02;;;;;;;1.48;0.30;;;11.50;99.90;;;;;;5050496;28;20043;-74
2022/07/06 01:47:27;;;;;;;1.40;0.22;;;11.50;99.90;;;;;;5051959;28;20082;-73
2022/07/06 01:49:54;;;;;;;0.95;0.30;;;11.50;99.90;;;;;;5049633;28;20462;-74
2022/07/06 01:52:21;;;;;;;1.10;0.30;;;11.60;99.90;;;;;;5032677;28;20028;-73
2022/07/06 01:54:47;;;;;;;1.52;0.30;;;11.60;99.90;;;;;;5050203;28;20094;-74
2022/07/06 01:57:12;;;;;;;1.42;0.30;;;11.60;99.90;;;;;;5037692;28;20136;-74
2022/07/06 01:59:38;;;;;;;0.60;0.20;;;11.60;99.90;;;;;;5031117;28;20040;-74
2022/07/06 02:02:04;;;;;;;2.25;0.20;;;11.60;99.90;;;;;;5044987;28;20029;-74
2022/07/06 02:04:30;;;;;;;1.65;0.20;;;11.60;99.90;;;;;;5065901;28;20036;-74
2022/07/06 02:06:56;;;;;;;1.00;0.20;;;11.60;99.90;;;;;;5032572;28;20021;-74
2022/07/06 02:09:22;;;;;;;0.98;0.30;;;11.60;99.90;;;;;;5038377;28;20029;-73
2022/07/06 02:11:48;;;;;;;1.27;0.20;;;11.50;99.90;;;;;;5037399;28;20055;-74
2022/07/06 02:14:14;;;;;;;1.45;0.20;;;11.50;99.90;;;;;;5045668;28;20033;-73
2022/07/06 02:16:40;;;;;;;0.82;0.40;;;11.50;99.90;;;;;;5036319;28;20028;-73
2022/07/06 02:19:06;;;;;;;2.58;0.55;;;11.50;99.90;;;;;;5036995;28;20103;-74
2022/07/06 02:21:32;;;;;;;3.88;0.60;;;11.60;99.90;;;;;;5038624;28;20060;-74
2022/07/06 02:23:58;;;;;;;2.08;0.60;;;11.60;99.90;;;;;;5065512;28;20032;-73
2022/07/06 02:26:24;;;;;;;2.55;0.70;;;11.60;99.90;;;;;;5039164;28;20028;-74
2022/07/06 02:28:49;;;;;;;1.63;0.50;;;11.60;99.90;;;;;;5049264;28;20043;-76
2022/07/06 02:31:15;;;;;;;2.20;0.55;;;11.60;99.90;;;;;;5049670;28;20024;-74
2022/07/06 02:33:43;;;;;;;2.55;0.50;;;11.60;99.90;;;;;;5037487;28;20037;-73
2022/07/06 02:36:11;;;;;;;2.85;0.50;;;11.50;99.90;;;;;;5047913;28;20032;-74
2022/07/06 02:38:36;;;;;;;2.97;0.60;;;11.50;99.90;;;;;;5035024;28;20404;-76
2022/07/06 02:41:02;;;;;;;1.42;0.52;;;11.50;99.90;;;;;;5053992;28;20052;-74
2022/07/06 02:43:28;;;;;;;3.78;0.70;;;11.50;99.90;;;;;;5051570;28;20883;-74
2022/07/06 02:45:54;;;;;;;3.33;0.93;;;11.40;99.90;;;;;;5053345;28;20116;-73
2022/07/06 02:48:21;;;;;;;2.20;0.68;;;11.40;99.90;;;;;;5052835;28;20029;-73
2022/07/06 02:50:48;;;;;;;3.38;0.68;;;11.40;99.90;;;;;;5035879;28;20753;-73
2022/07/06 02:53:14;;;;;;;3.65;0.60;;;11.40;99.90;;;;;;5052759;28;20029;-75
2022/07/06 02:55:41;;;;;;;2.17;0.55;;;11.40;99.90;;;;;;5057221;28;20025;-74
2022/07/06 02:58:06;;;;;;;3.33;0.70;;;11.40;99.90;;;;;;5053399;28;20032;-78
2022/07/06 03:00:32;;;;;;;2.25;0.60;;;11.40;99.90;;;;;;5036415;28;20484;-73
2022/07/06 03:02:59;;;;;;;2.53;0.70;;;11.40;99.90;;;;;;5051668;28;20023;-74
2022/07/06 03:05:25;;;;;;;2.70;0.80;;;11.30;99.90;;;;;;5034849;28;20688;-74
2022/07/06 03:07:51;;;;;;;2.00;0.68;;;11.30;99.90;;;;;;5034205;28;20028;-73
2022/07/06 03:10:16;;;;;;;2.08;0.60;;;11.30;99.90;;;;;;5050590;28;20035;-73
2022/07/06 03:12:42;;;;;;;3.42;0.73;;;11.20;99.90;;;;;;5051439;28;20025;-74
2022/07/06 03:15:12;;;;;;;1.83;0.70;;;11.20;99.90;;;;;;5034888;28;20040;-74
2022/07/06 03:17:39;;;;;;;2.08;0.80;;;11.20;99.90;;;;;;5050614;28;20025;-74
2022/07/06 03:20:06;;;;;;;3.28;0.90;;;11.10;99.90;;;;;;5050648;28;20037;-73
2022/07/06 03:22:32;;;;;;;1.23;0.40;;;11.10;99.90;;;;;;5057424;28;20039;-74
2022/07/06 03:24:58;;;;;;;1.63;0.85;;;11.10;99.90;;;;;;5052016;28;20515;-74
2022/07/06 03:27:24;;;;;;;4.63;0.60;;;11.10;99.90;;;;;;5057012;28;20032;-75
2022/07/06 03:29:50;;;;;;;1.13;0.40;;;11.10;99.90;;;;;;5040008;28;20021;-73
2022/07/06 03:32:16;;;;;;;1.35;0.40;;;11.10;99.90;;;;;;5034603;28;20027;-74
2022/07/06 03:34:42;;;;;;;1.70;0.50;;;11.10;99.90;;;;;;5035415;28;20029;-74
2022/07/06 03:37:08;;;;;;;1.95;0.50;;;11.10;99.90;;;;;;5052579;28;20059;-74
2022/07/06 03:39:36;;;;;;;1.40;0.40;;;11.00;99.90;;;;;;5052789;28;20055;-74
2022/07/06 03:42:03;;;;;;;2.10;0.70;;;11.00;99.90;;;;;;5068463;28;20068;-73
2022/07/06 03:44:30;;;;;;;2.42;0.70;;;11.00;99.90;;;;;;5052034;28;20024;-73
2022/07/06 03:46:55;;;;;;;2.67;0.52;;;11.00;99.90;;;;;;5053407;28;20396;-74
2022/07/06 03:49:26;;;;;;;1.60;0.50;;;11.00;99.90;;;;;;5049878;28;20469;-74
2022/07/06 03:51:53;;;;;;;;;;;11.00;99.90;;;;;;5051529;28;20029;-74
2022/07/06 03:54:18;;;;;;;1.10;0.40;;;11.00;99.90;;;;;;5050830;28;20394;-73
2022/07/06 03:56:45;;;;;;;3.42;0.60;;;11.10;99.90;;;;;;5038755;28;20485;-73
2022/07/06 03:59:14;;;;;;;2.10;0.40;;;11.10;99.90;;;;;;5051185;28;20039;-73
2022/07/06 04:01:41;;;;;;;2.08;0.60;;;11.20;99.90;;;;;;5056462;28;20037;-73
2022/07/06 04:04:08;;;;;;;1.77;0.40;;;11.30;99.90;;;;;;5033520;28;20021;-74
2022/07/06 04:06:38;;;;;;;2.03;0.50;;;11.30;99.90;;;;;;5051032;28;20029;-73
2022/07/06 04:09:04;;;;;;;4.30;0.52;;;11.40;99.90;;;;;;5050497;28;20021;-74
2022/07/06 04:11:30;;;;;;;2.25;0.50;;;11.50;99.90;;;;;;5050299;28;20590;-74
2022/07/06 04:13:56;;;;;;;4.57;0.50;;;11.50;99.90;;;;;;5050666;28;20028;-73
2022/07/06 04:16:23;;;;;;;4.38;0.70;;;11.60;99.90;;;;;;5045555;28;20123;-74
2022/07/06 04:18:49;;;;;;;3.45;0.70;;;11.70;99.90;;;;;;5066280;28;20600;-74
2022/07/06 04:21:15;;;;;;;1.48;0.50;;;11.70;99.90;;;;;;5050049;28;20048;-74
2022/07/06 04:23:40;;;;;;;6.35;0.73;;;11.80;99.90;;;;;;5038613;28;20400;-74
2022/07/06 04:26:08;;;;;;;1.55;0.60;;;11.80;99.90;;;;;;5066885;28;20036;-73
2022/07/06 04:28:36;;;;;;;2.20;0.73;;;11.90;99.90;;;;;;5048553;28;20028;-74
2022/07/06 04:31:02;;;;;;;3.67;0.80;;;11.90;99.90;;;;;;5049326;28;20033;-75
2022/07/06 04:33:28;;;;;;;1.65;0.80;;;11.90;99.90;;;;;;5033194;28;20037;-74
2022/07/06 04:35:54;;;;;;;3.05;0.70;;;11.90;99.90;;;;;;5033134;28;20129;-74
2022/07/06 04:38:24;;;;;;;4.03;1.05;;;12.00;99.90;;;;;;5035329;28;20044;-74
2022/07/06 04:40:51;;;;;;;3.83;0.60;;;12.00;99.90;;;;;;5050119;28;20037;-74
2022/07/06 04:43:19;;;;;;;2.67;0.60;;;12.00;99.90;;;;;;5035226;28;20075;-74
2022/07/06 04:45:44;;;;;;;3.05;0.68;;;12.10;99.90;;;;;;5044394;28;20621;-74
2022/07/06 04:48:10;;;;;;;2.40;0.70;;;12.20;99.90;;;;;;5038576;28;20033;-74
2022/07/06 04:50:36;;;;;;;3.83;0.82;;;12.30;99.90;;;;;;5048926;28;20064;-74
2022/07/06 04:53:04;;;;;;;2.38;0.85;;;12.50;99.90;;;;;;5066090;28;20410;-74
2022/07/06 04:55:32;;;;;;;1.95;0.60;;;12.50;99.90;;;;;;5050059;28;20264;-74
2022/07/06 04:57:58;;;;;;;3.65;0.60;;;12.70;99.90;;;;;;5052058;28;20489;-74
2022/07/06 05:00:24;;;;;;;3.17;0.68;;;12.90;99.90;;;;;;5033326;28;20075;-74
2022/07/06 05:02:51;;;;;;;2.05;0.60;;;13.00;99.90;;;;;;5049408;28;20025;-74
2022/07/06 05:05:18;;;;;;;1.30;0.50;;;12.90;99.90;;;;;;5039372;28;20460;-75
2022/07/06 05:07:45;;;;;;;2.63;0.80;;;12.80;99.90;;;;;;5032491;28;20035;-74
2022/07/06 05:10:11;;;;;;;2.70;0.70;;;12.60;99.90;;;;;;5033364;28;20034;-74
2022/07/06 05:12:40;;;;;;;3.05;1.10;;;12.60;99.90;;;;;;5044288;28;20029;-74
2022/07/06 05:15:07;;;;;;;2.58;0.52;;;12.70;99.90;;;;;;5046518;28;20056;-75
2022/07/06 05:17:33;;;;;;;2.42;0.30;;;12.90;99.90;;;;;;5046430;28;20016;-74
2022/07/06 05:20:00;;;;;;;3.00;0.63;;;13.00;99.90;;;;;;5031423;28;20052;-74
2022/07/06 05:22:29;;;;;;;1.90;0.50;;;13.00;99.90;;;;;;5032296;28;20036;-74
2022/07/06 05:24:55;;;;;;;2.20;0.50;;;13.00;99.90;;;;;;5044591;28;20408;-75
2022/07/06 05:27:22;;;;;;;2.08;0.63;;;12.90;99.90;;;;;;5035417;28;20043;-74
2022/07/06 05:29:48;;;;;;;3.40;0.50;;;13.00;99.90;;;;;;5044231;28;20032;-74
2022/07/06 05:32:14;;;;;;;4.78;0.60;;;13.10;99.90;;;;;;5031035;28;20051;-75
2022/07/06 05:34:40;;;;;;;3.50;0.75;;;13.10;99.90;;;;;;5053404;28;20020;-74
2022/07/06 05:37:06;;;;;;;2.08;0.50;;;13.20;99.90;;;;;;5051269;28;20051;-74
2022/07/06 05:39:32;;;;;;;2.80;0.50;;;13.30;99.90;;;;;;5033977;28;20127;-74
2022/07/06 05:41:58;;;;;;;3.13;0.50;;;13.40;99.90;;;;;;5037319;28;20127;-75
2022/07/06 05:44:23;;;;;;;1.95;0.50;;;13.40;99.90;;;;;;5049525;28;20032;-75
2022/07/06 05:46:49;;;;;;;1.30;0.50;;;13.50;99.90;;;;;;5045378;28;20036;-74
2022/07/06 05:51:59;;;;;;;2.97;0.40;;;13.60;99.90;;;;;;5046608;28;20045;-74
2022/07/06 05:54:26;;;;;;;3.10;0.50;;;13.80;99.90;;;;;;5051055;28;20503;-74
2022/07/06 05:56:51;;;;;;;3.45;0.60;;;13.80;99.90;;;;;;5041206;28;20024;-74
2022/07/06 05:59:17;;;;;;;2.08;0.50;;;13.80;99.90;;;;;;5023614;28;20041;-74
2022/07/06 06:01:43;;;;;;;2.17;0.50;;;13.90;99.90;;;;;;5040644;28;20024;-74
2022/07/06 06:04:13;;;;;;;3.05;0.90;;;14.10;99.90;;;;;;5047933;28;20025;-74
2022/07/06 06:06:38;;;;;;;2.58;0.60;;;14.10;99.90;;;;;;5048328;28;20039;-74
2022/07/06 06:09:04;;;;;;;2.53;0.50;;;14.20;99.90;;;;;;5046541;28;20029;-75
2022/07/06 06:11:30;;;;;;;2.85;0.55;;;14.20;99.90;;;;;;5032508;28;20940;-75
2022/07/06 06:13:55;;;;;;;1.83;0.50;;;14.10;99.90;;;;;;5051291;28;20048;-74
2022/07/06 06:16:21;;;;;;;1.77;0.40;;;14.20;99.90;;;;;;5036192;28;20027;-74
2022/07/06 06:18:47;;;;;;;4.10;0.40;;;14.40;99.90;;;;;;5048764;28;20025;-74
2022/07/06 06:21:12;;;;;;;1.58;0.40;;;14.30;99.90;;;;;;5051787;28;20040;-74
2022/07/06 06:23:38;;;;;;;2.05;0.40;;;14.60;99.90;;;;;;5059608;28;20145;-75
2022/07/06 06:26:04;;;;;;;0.90;0.30;;;14.80;99.90;;;;;;5032232;28;20108;-75
2022/07/06 06:28:29;;;;;;;2.53;0.52;;;14.90;99.90;;;;;;5049859;28;20027;-75
2022/07/06 06:30:55;;;;;;;2.97;0.40;;;14.90;99.90;;;;;;5047759;28;20629;-75
2022/07/06 06:33:21;;;;;;;1.88;0.35;;;14.90;99.90;;;;;;5051529;28;20029;-74
2022/07/06 06:35:51;;;;;;;1.60;0.32;;;15.00;99.90;;;;;;5051550;28;20028;-74
2022/07/06 06:38:19;;;;;;;2.95;0.40;;;14.90;99.90;;;;;;5051420;28;20048;-75
2022/07/06 06:40:45;;;;;;;3.17;0.35;;;14.90;99.90;;;;;;5050031;28;20053;-77
2022/07/06 06:43:11;;;;;;;2.53;0.40;;;15.10;99.90;;;;;;5048709;28;20146;-75
2022/07/06 06:46:00;;;;;;;2.07;0.40;;;15.20;99.90;;;;;;5051223;28;20036;-75
2022/07/06 06:48:25;;;;;;;1.75;0.40;;;15.20;99.90;;;;;;5050721;28;20024;-74
2022/07/06 06:50:51;;;;;;;2.58;0.30;;;15.20;99.90;;;;;;5054931;28;20485;-74
2022/07/06 06:53:17;;;;;;;1.85;0.40;;;15.40;99.90;;;;;;5067787;28;20071;-75
2022/07/06 06:55:42;;;;;;;2.00;0.35;;;15.40;99.90;;;;;;5051067;28;20033;-75
2022/07/06 06:58:08;;;;;;;1.08;0.20;;;15.60;99.90;;;;;;5048903;28;20033;-74
2022/07/06 07:00:33;;;;;;;4.22;0.30;;;16.10;99.90;;;;;;5050696;28;20044;-74
2022/07/06 07:02:59;;;;;;;1.63;0.20;;;16.40;99.90;;;;;;5049837;28;20119;-75
2022/07/06 07:05:25;;;;;;;1.65;0.20;;;16.60;99.90;;;;;;5048888;28;20648;-78
2022/07/06 07:07:50;;;;;;;1.70;0.30;;;16.60;99.90;;;;;;5047932;28;20041;-74
2022/07/06 07:10:16;;;;;;;2.08;0.20;;;16.50;99.90;;;;;;5049016;28;20044;-76
2022/07/06 07:12:43;;;;;;;0.95;0.10;;;16.70;99.90;;;;;;5062985;28;20029;-74
2022/07/06 07:15:09;;;;;;;2.15;0.10;;;16.60;99.90;;;;;;5046269;28;20025;-78
2022/07/06 07:17:35;;;;;;;1.17;0.10;;;16.90;99.90;;;;;;5048330;28;20482;-76
2022/07/06 07:20:00;;;;;;;2.05;0.17;;;17.00;99.90;;;;;;5051125;28;20123;-75
2022/07/06 07:22:26;;;;;;;0.60;0.10;;;16.80;99.90;;;;;;5053452;28;20520;-75
2022/07/06 07:24:52;;;;;;;2.38;0.10;;;17.00;99.90;;;;;;5046449;28;20064;-74
2022/07/06 07:27:18;;;;;;;0.75;0.10;;;17.10;99.90;;;;;;5048008;28;20163;-75
2022/07/06 07:29:44;;;;;;;0.40;0.10;;;17.50;99.90;;;;;;5052984;28;20028;-74
2022/07/06 07:32:09;;;;;;;2.03;0.10;;;17.60;99.90;;;;;;5047482;28;20592;-76
2022/07/06 07:34:35;;;;;;;2.38;0.10;;;17.70;99.90;;;;;;5032135;28;20028;-80
2022/07/06 07:37:00;;;;;;;2.05;0.00;;;18.00;99.90;;;;;;5048647;28;20040;-75
2022/07/06 07:39:26;;;;;;;2.28;0.43;;;18.20;99.90;;;;;;5012300;28;20506;-75
2022/07/06 07:41:51;;;;;;;1.70;0.10;;;18.10;99.90;;;;;;5009803;28;20506;-78
2022/07/06 07:44:17;;;;;;;0.77;0.10;;;18.50;99.90;;;;;;5014442;28;20075;-75
2022/07/06 07:46:43;;;;;;;0.50;0.10;;;18.30;99.90;;;;;;5025025;28;20095;-75
2022/07/06 07:49:09;;;;;;;1.08;0.10;;;18.00;99.90;;;;;;5008672;28;20026;-75
2022/07/06 07:51:35;;;;;;;0.57;0.03;;;18.30;99.90;;;;;;5014001;28;20037;-75
2022/07/06 07:54:01;;;;;;;3.40;0.10;;;17.50;99.90;;;;;;5018231;28;20026;-74
2022/07/06 07:56:27;;;;;;;1.60;0.10;;;16.90;99.90;;;;;;5008377;28;20048;-74
2022/07/06 07:58:52;;;;;;;0.82;0.08;;;16.80;99.90;;;;;;4994518;28;20034;-75
2022/07/06 08:01:22;;;;;;;1.77;0.10;;;16.70;99.90;;;;;;5008084;28;20041;-75
2022/07/06 08:03:48;;;;;;;0.75;0.00;;;17.20;99.90;;;;;;5023717;28;20092;-75
2022/07/06 08:06:14;;;;;;;1.10;0.10;;;18.10;99.90;;;;;;4992503;28;20025;-75
2022/07/06 08:08:39;;;;;;;1.80;0.00;;;18.50;99.90;;;;;;4996114;28;20120;-75
2022/07/06 08:11:05;;;;;;;1.42;0.10;;;19.40;99.90;;;;;;5006700;28;20060;-75
2022/07/06 08:13:31;;;;;;;1.23;0.10;;;18.50;99.90;;;;;;5010300;28;20041;-75
2022/07/06 08:15:56;;;;;;;0.28;0.00;;;18.00;99.90;;;;;;5012025;28;20033;-74
2022/07/06 08:18:22;;;;;;;1.05;0.10;;;18.10;99.90;;;;;;5025695;28;20026;-75
2022/07/06 08:20:48;;;;;;;0.80;0.10;;;17.70;99.90;;;;;;4994468;28;20587;-75
2022/07/06 08:23:13;;;;;;;1.30;0.00;;;17.40;99.90;;;;;;5009136;28;22189;-75
2022/07/06 08:25:39;;;;;;;3.85;0.10;;;17.50;99.90;;;;;;5012552;28;20041;-74
2022/07/06 08:28:05;;;;;;;0.73;0.08;;;17.80;99.90;;;;;;5009179;28;20048;-75
2022/07/06 08:30:34;;;;;;;0.70;0.00;;;18.50;99.90;;;;;;5011829;28;20120;-75
2022/07/06 08:33:00;;;;;;;0.52;0.00;;;19.30;99.90;;;;;;5009566;28;20113;-74
2022/07/06 08:35:26;;;;;;;1.52;0.10;;;19.20;99.90;;;;;;5009534;28;20025;-75
2022/07/06 08:37:51;;;;;;;0.73;0.10;;;19.10;99.90;;;;;;5010055;28;20054;-76
2022/07/06 08:40:17;;;;;;;0.63;0.05;;;19.40;99.90;;;;;;4991949;28;20041;-75
2022/07/06 08:42:45;;;;;;;0.93;0.05;;;19.30;99.90;;;;;;5005080;28;20112;-76
2022/07/06 08:45:12;;;;;;;1.60;0.10;;;18.50;99.90;;;;;;5023249;28;20085;-75
2022/07/06 08:47:37;;;;;;;0.40;0.00;;;18.10;99.90;;;;;;5011408;28;20385;-74
2022/07/06 08:50:04;;;;;;;0.45;0.03;;;17.80;99.90;;;;;;5022429;28;20034;-75
2022/07/06 08:52:30;;;;;;;0.17;0.00;;;17.60;99.90;;;;;;5009704;28;20034;-75
2022/07/06 08:54:56;;;;;;;1.33;0.10;;;17.40;99.90;;;;;;5006242;28;20072;-74
2022/07/06 08:57:22;;;;;;;0.35;0.00;;;17.40;99.90;;;;;;5008014;28;20144;-75
2022/07/06 08:59:48;;;;;;;1.25;0.00;;;18.00;99.90;;;;;;5005628;28;20450;-75
2022/07/06 09:02:14;;;;;;;0.70;0.00;;;18.70;99.90;;;;;;5006232;28;20030;-75
2022/07/06 09:04:43;;;;;;;0.30;0.00;;;19.10;99.90;;;;;;5010602;28;20029;-76
2022/07/06 09:07:08;;;;;;;0.47;0.00;;;19.20;99.90;;;;;;4989714;28;20037;-76
2022/07/06 09:09:36;;;;;;;0.73;0.00;;;19.40;99.90;;;;;;5005800;28;20038;-75
2022/07/06 09:12:02;;;;;;;0.68;0.00;;;20.00;99.90;;;;;;5009379;28;20537;-75
2022/07/06 09:14:29;;;;;;;0.80;0.08;;;19.80;99.90;;;;;;5006971;28;20120;-75
2022/07/06 09:17:03;;;;;;;0.45;0.00;;;19.10;99.90;;;;;;4991421;28;20033;-75
2022/07/06 09:19:31;;;;;;;1.73;0.00;;;18.70;99.90;;;;;;5007983;28;20254;-75
2022/07/06 09:21:57;;;;;;;0.65;0.00;;;18.50;99.90;;;;;;5007324;28;20053;-75
2022/07/06 09:24:22;;;;;;;1.15;0.00;;;18.30;99.90;;;;;;5007211;28;20108;-75
2022/07/06 09:26:48;;;;;;;1.38;0.10;;;18.70;99.90;;;;;;5021981;28;20056;-74
2022/07/06 09:29:14;;;;;;;0.35;0.00;;;19.10;99.90;;;;;;5007459;28;20590;-74
2022/07/06 09:31:40;;;;;;;1.35;0.03;;;19.70;99.90;;;;;;5013502;28;20029;-75
2022/07/06 09:34:10;;;;;;;0.47;0.00;;;19.90;99.90;;;;;;5016899;28;20466;-75
2022/07/06 09:36:49;;;;;;;0.45;0.00;;;19.40;99.90;;;;;;5007849;28;20049;-76
2022/07/06 09:39:28;;;;;;;0.20;0.00;;;19.20;99.90;;;;;;5009517;28;20681;-79
2022/07/06 09:41:56;;;;;;;0.20;0.00;;;18.90;99.90;;;;;;5006088;28;20151;-80
2022/07/06 09:44:33;;;;;;;0.38;0.00;;;18.70;99.90;;;;;;5006835;28;20048;-74
2022/07/06 09:47:02;;;;;;;0.70;0.00;;;18.70;99.90;;;;;;4991957;28;20030;-80
2022/07/06 09:49:28;;;;;;;0.55;0.00;;;19.10;99.90;;;;;;5005695;28;20049;-74
2022/07/06 09:51:59;;;;;;;1.38;0.00;;;19.50;99.90;;;;;;5004164;28;20044;-75
2022/07/06 09:54:25;;;;;;;0.88;0.00;;;19.50;99.90;;;;;;5007830;28;20478;-75
2022/07/06 09:56:52;;;;;;;0.13;0.00;;;19.80;99.90;;;;;;5005684;28;20026;-76
2022/07/06 09:59:21;;;;;;;0.88;0.00;;;20.10;99.90;;;;;;4988485;28;20139;-75
2022/07/06 10:01:51;;;;;;;0.73;0.10;;;20.10;99.90;;;;;;5006853;28;20510;-75
2022/07/06 10:04:19;;;;;;;0.68;0.00;;;19.60;99.90;;;;;;5010018;28;20053;-75
2022/07/06 10:06:46;;;;;;;1.20;0.00;;;19.40;99.90;;;;;;5006193;28;20041;-75
2022/07/06 10:09:13;;;;;;;1.70;0.00;;;19.30;99.90;;;;;;4990565;28;20469;-75
2022/07/06 10:11:42;;;;;;;0.10;0.00;;;19.30;99.90;;;;;;5005155;28;20029;-76
2022/07/06 10:14:09;;;;;;;0.32;0.00;;;19.20;99.90;;;;;;5005794;28;20034;-75
2022/07/06 10:16:37;;;;;;;0.63;0.00;;;19.20;99.90;;;;;;5006099;28;20424;-74
2022/07/06 10:19:06;;;;;;;0.85;0.00;;;19.00;99.90;;;;;;5003993;28;20340;-75
2022/07/06 10:21:33;;;;;;;2.15;0.00;;;19.20;99.90;;;;;;5006401;28;20034;-76
2022/07/06 10:24:01;;;;;;;0.40;0.00;;;19.20;99.90;;;;;;4995287;28;20041;-74
2022/07/06 10:26:27;;;;;;;0.28;0.00;;;19.10;99.90;;;;;;4990142;28;20152;-75
2022/07/06 10:28:53;;;;;;;1.00;0.10;;;19.40;99.90;;;;;;5007085;28;20068;-74
2022/07/06 10:31:20;;;;;;;0.52;0.00;;;19.70;99.90;;;;;;5007959;28;20049;-74
2022/07/06 10:33:47;;;;;;;1.15;0.10;;;19.90;99.90;;;;;;5009970;28;20545;-74
2022/07/06 10:36:14;;;;;;;1.08;0.10;;;19.90;99.90;;;;;;4992912;28;20413;-74
2022/07/06 10:38:40;;;;;;;1.10;0.00;;;19.80;99.90;;;;;;5008629;28;20065;-75
2022/07/06 10:41:09;;;;;;;0.15;0.00;;;19.80;99.90;;;;;;5008073;28;20044;-74
2022/07/06 10:43:35;;;;;;;0.95;0.00;;;19.90;99.90;;;;;;5006362;28;20428;-75
2022/07/06 10:46:11;;;;;;;0.38;0.03;;;19.90;99.90;;;;;;4988778;28;20079;-74
2022/07/06 10:48:41;;;;;;;0.45;0.00;;;20.10;99.90;;;;;;4999687;28;20026;-75
2022/07/06 10:51:08;;;;;;;0.40;0.00;;;20.50;99.90;;;;;;5004229;28;20638;-74
2022/07/06 10:53:39;;;;;;;0.40;0.05;;;20.60;99.90;;;;;;5005600;28;20088;-74
2022/07/06 10:56:09;;;;;;;0.50;0.10;;;20.70;99.90;;;;;;5004757;28;20033;-74
2022/07/06 10:58:51;;;;;;;0.70;0.00;;;20.70;99.90;;;;;;5021721;28;20069;-75
2022/07/06 11:01:17;;;;;;;0.80;0.00;;;21.30;99.90;;;;;;5010692;28;20037;-75
2022/07/06 11:03:48;;;;;;;2.17;0.00;;;20.70;99.90;;;;;;4998592;28;20057;-74
2022/07/06 11:06:21;;;;;;;0.82;0.00;;;19.90;99.90;;;;;;4991530;28;20033;-74
2022/07/06 11:08:49;;;;;;;0.98;0.00;;;20.00;99.90;;;;;;5010761;28;20025;-74
2022/07/06 11:11:17;;;;;;;0.70;0.00;;;20.20;99.90;;;;;;5007913;28;20037;-77
2022/07/06 11:14:10;;;;;;;1.15;0.10;;;19.70;99.90;;;;;;5007290;28;20034;-75
2022/07/06 11:17:00;;;;;;;0.15;0.00;;;20.00;99.90;;;;;;5024292;28;20044;-75
2022/07/06 11:19:26;;;;;;;1.80;0.00;;;20.50;99.90;;;;;;5010210;28;20037;-74
2022/07/06 11:21:56;;;;;;;1.02;0.00;;;20.80;99.90;;;;;;5010871;28;20061;-74
2022/07/06 11:24:27;;;;;;;0.60;0.00;;;21.00;99.90;;;;;;5011170;28;20033;-75
2022/07/06 11:26:54;;;;;;;0.50;0.00;;;21.00;99.90;;;;;;5009688;28;20030;-75
2022/07/06 11:29:21;;;;;;;0.85;0.00;;;21.40;99.90;;;;;;5010304;28;20033;-76
2022/07/06 11:31:49;;;;;;;0.60;0.00;;;21.20;99.90;;;;;;5009768;28;20037;-77
2022/07/06 11:34:24;;;;;;;0.50;0.00;;;21.50;99.90;;;;;;5009182;28;20238;-75
2022/07/06 11:37:01;;;;;;;0.50;0.00;;;20.70;99.90;;;;;;5010123;28;20121;-75
2022/07/06 11:39:28;;;;;;;0.00;0.00;;;20.30;99.90;;;;;;4993391;28;20144;-74
2022/07/06 11:41:58;;;;;;;0.47;0.00;;;19.70;99.90;;;;;;5010360;28;20040;-75
2022/07/06 11:44:24;;;;;;;1.15;0.08;;;19.80;99.90;;;;;;5013502;28;20029;-74
2022/07/06 11:46:50;;;;;;;0.75;0.00;;;20.00;99.90;;;;;;4990300;28;20776;-74
2022/07/06 11:49:17;;;;;;;0.95;0.00;;;20.90;99.90;;;;;;5024712;28;20266;-74
2022/07/06 11:51:42;;;;;;;0.50;0.00;;;21.20;99.90;;;;;;5010758;28;20063;-77
2022/07/06 11:54:12;;;;;;;1.42;0.00;;;20.80;99.90;;;;;;5007091;28;20249;-79
2022/07/06 11:56:45;;;;;;;1.77;0.00;;;21.00;99.90;;;;;;5009825;28;20029;-74
2022/07/06 11:59:10;;;;;;;0.57;0.00;;;21.00;99.90;;;;;;5007497;28;20053;-74
2022/07/06 12:01:41;;;;;;;1.40;0.00;;;21.40;99.90;;;;;;5008047;28;20132;-75
2022/07/06 12:04:07;;;;;;;0.55;0.00;;;21.50;99.90;;;;;;4991989;28;20100;-78
2022/07/06 12:06:33;;;;;;;1.02;0.00;;;21.10;99.90;;;;;;5023234;28;20120;-76
2022/07/06 12:09:00;;;;;;;1.17;0.00;;;21.00;99.90;;;;;;5005868;28;20030;-75
2022/07/06 12:11:31;;;;;;;0.20;0.00;;;20.80;99.90;;;;;;4996912;28;20037;-76
2022/07/06 12:13:59;;;;;;;0.22;0.00;;;20.40;99.90;;;;;;5009767;28;20112;-75
2022/07/06 12:16:34;;;;;;;0.35;0.00;;;21.50;99.90;;;;;;5007682;28;20025;-74
2022/07/06 12:19:00;;;;;;;1.77;0.10;;;22.40;99.90;;;;;;5024249;28;20457;-75
2022/07/06 12:21:26;;;;;;;1.38;0.00;;;22.20;99.90;;;;;;5012841;28;20493;-75
2022/07/06 12:23:53;;;;;;;1.10;0.00;;;21.20;99.90;;;;;;5008012;28;20390;-77
2022/07/06 12:26:28;;;;;;;0.93;0.10;;;21.10;99.90;;;;;;5007868;28;20033;-79
2022/07/06 12:29:02;;;;;;;0.75;0.00;;;20.70;99.90;;;;;;5024493;28;20441;-75
2022/07/06 12:31:32;;;;;;;0.88;0.00;;;21.60;99.90;;;;;;5010079;28;20040;-75
2022/07/06 12:33:58;;;;;;;1.35;0.10;;;21.70;99.90;;;;;;5008543;28;20026;-76
2022/07/06 12:36:24;;;;;;;1.65;0.03;;;21.40;99.90;;;;;;5013772;28;20222;-74
2022/07/06 12:38:49;;;;;;;1.67;0.10;;;21.50;99.90;;;;;;5013507;28;20103;-76
2022/07/06 12:41:32;;;;;;;0.63;0.00;;;21.10;99.90;;;;;;5007862;28;20041;-76
2022/07/06 12:44:06;;;;;;;1.10;0.10;;;21.60;99.90;;;;;;5006683;28;20029;-75
2022/07/06 12:46:38;;;;;;;0.88;0.10;;;20.60;99.90;;;;;;5012895;28;20129;-74
2022/07/06 12:49:15;;;;;;;1.08;0.10;;;20.80;99.90;;;;;;4990224;28;20146;-74